Time;durP1;ratioP1;P1;durP2;ratioP2;P2;SDS_P1;SDS_P2;PMS_P1;PMS_P2;Temp;Humidity;BMP_temperature;BMP_pressure;BME280_temperature;BME280_humidity;BME280_pressure;Samples;Min_cycle;Max_cycle;Signal;HPM_P1;HPM_P2
2021/12/17 00:01:00;;;;;;;55.83;22.88;;;;;;;9.25;88.87;103937.31;7392954;19;20035;-58
2021/12/17 00:03:43;;;;;;;47.50;20.33;;;;;;;9.24;88.93;103938.16;7392021;19;20104;-57
2021/12/17 00:06:40;;;;;;;58.47;23.85;;;;;;;9.18;88.83;103938.97;7390187;19;20590;-57
2021/12/17 00:09:09;;;;;;;59.28;23.05;;;;;;;9.12;88.84;103944.13;7390464;19;20022;-58
2021/12/17 00:11:38;;;;;;;55.88;22.55;;;;;;;9.07;89.11;103938.84;7393222;19;20471;-57
2021/12/17 00:14:07;;;;;;;54.05;22.85;;;;;;;9.07;89.31;103938.84;7390706;19;20013;-58
2021/12/17 00:16:39;;;;;;;52.83;22.40;;;;;;;9.11;89.43;103938.03;7389649;19;20086;-58
2021/12/17 00:19:20;;;;;;;57.20;23.75;;;;;;;9.11;89.31;103945.88;7392541;19;20015;-57
2021/12/17 00:48:23;;;;;;;56.47;24.13;;;;;;;9.09;89.67;103937.13;7387004;19;20018;-55
2021/12/17 00:49:32;;;;;;;63.58;26.58;;;;;;;9.09;89.86;103931.03;7391559;19;20014;-54
2021/12/17 00:52:02;;;;;;;55.60;23.73;;;;;;;9.09;89.70;103929.28;7392986;19;20114;-57
2021/12/17 00:54:38;;;;;;;55.25;23.42;;;;;;;9.10;89.76;103933.66;7391767;19;20014;-59
2021/12/17 00:57:11;;;;;;;49.55;22.42;;;;;;;9.11;89.73;103926.66;7388479;19;20014;-58
2021/12/17 00:59:41;;;;;;;52.05;22.90;;;;;;;9.09;89.81;103916.19;7391232;19;20018;-58
2021/12/17 01:02:13;;;;;;;46.30;21.10;;;;;;;8.98;89.40;103917.78;7389644;19;20014;-55
2021/12/17 01:04:44;;;;;;;47.58;21.67;;;;;;;8.87;89.53;103922.00;7389109;19;20019;-57
2021/12/17 01:07:15;;;;;;;51.13;22.20;;;;;;;8.79;90.29;103922.78;7388944;19;20010;-58
2021/12/17 01:09:47;;;;;;;53.90;23.65;;;;;;;8.84;90.67;103917.63;7389491;19;20015;-58
2021/12/17 01:12:20;;;;;;;53.40;23.38;;;;;;;8.87;90.72;103914.16;7390114;19;20094;-58
2021/12/17 01:14:50;;;;;;;54.08;23.42;;;;;;;8.90;90.70;103914.22;7388218;19;20112;-58
2021/12/17 01:17:21;;;;;;;59.47;24.15;;;;;;;8.90;90.53;103916.84;7388066;19;20018;-57
2021/12/17 01:22:52;;;;;;;58.53;24.92;;;;;;;8.92;90.50;103917.72;7390577;19;20541;-57
2021/12/17 01:25:38;;;;;;;64.22;25.38;;;;;;;8.93;90.66;103909.91;7388808;19;20018;-54
2021/12/17 01:36:13;;;;;;;65.85;24.98;;;;;;;8.90;90.61;103915.09;7389157;19;20023;-55
2021/12/17 01:41:50;;;;;;;64.25;23.85;;;;;;;8.93;90.55;103915.13;7386979;19;20017;-54
2021/12/17 01:44:20;;;;;;;70.25;26.08;;;;;;;8.90;90.63;103920.31;7387749;19;20018;-57
2021/12/17 01:46:52;;;;;;;68.55;25.20;;;;;;;8.90;90.58;103922.94;7387541;19;20371;-59
2021/12/17 01:55:40;;;;;;;68.70;25.13;;;;;;;8.93;90.74;103935.19;7390048;19;20014;-58
2021/12/17 02:00:38;;;;;;;44.30;17.77;;;;;;;8.81;90.64;103930.66;7389071;19;20696;-58
2021/12/17 02:03:08;;;;;;;38.45;16.92;;;;;;;8.74;90.53;103931.44;7387494;19;20346;-58
2021/12/17 02:05:38;;;;;;;37.10;15.85;;;;;;;8.69;90.62;103933.97;7387865;19;20748;-59
2021/12/17 02:08:09;;;;;;;37.95;16.13;;;;;;;8.72;90.96;103934.03;7386862;19;20015;-57
2021/12/17 02:11:22;;;;;;;31.15;15.38;;;;;;;8.77;90.91;103941.94;7388605;19;20108;-57
2021/12/17 02:19:44;;;;;;;37.55;17.30;;;;;;;8.84;90.58;103933.34;7389347;19;20039;-55
2021/12/17 02:33:16;;;;;;;34.10;16.35;;;;;;;8.91;90.71;103935.16;7392037;19;20013;-57
2021/12/17 02:35:46;;;;;;;34.72;16.10;;;;;;;8.93;90.55;103935.19;7392166;19;20070;-54
2021/12/17 02:38:17;;;;;;;32.67;15.68;;;;;;;8.94;90.82;103935.19;7396063;19;20022;-54
2021/12/17 02:46:09;;;;;;;35.03;15.73;;;;;;;8.91;90.90;103927.31;7395676;19;20015;-55
2021/12/17 02:48:39;;;;;;;35.40;16.15;;;;;;;8.92;90.90;103938.66;7395920;19;20022;-56
2021/12/17 02:51:08;;;;;;;38.47;16.35;;;;;;;8.94;91.05;103944.75;7396266;19;20479;-57
2021/12/17 02:53:40;;;;;;;36.55;16.30;;;;;;;8.95;90.99;103933.44;7392765;19;20014;-57
2021/12/17 02:56:10;;;;;;;38.03;17.88;;;;;;;8.91;90.92;103932.56;7391681;19;20010;-57
2021/12/17 02:58:40;;;;;;;33.88;17.27;;;;;;;8.89;90.81;103936.88;7396079;19;20483;-57
2021/12/17 03:01:12;;;;;;;39.58;17.42;;;;;;;8.89;90.71;103942.09;7392401;19;20415;-57
2021/12/17 03:03:47;;;;;;;37.70;16.95;;;;;;;8.87;90.97;103935.97;7391318;19;20021;-58
2021/12/17 03:06:17;;;;;;;36.92;17.13;;;;;;;8.87;90.78;103927.22;7392011;19;20326;-58
2021/12/17 03:08:48;;;;;;;37.70;16.48;;;;;;;8.89;90.91;103929.03;7391965;19;20018;-58
2021/12/17 03:11:17;;;;;;;41.38;17.23;;;;;;;8.87;90.98;103919.38;7392009;19;20114;-56
2021/12/17 03:13:48;;;;;;;35.47;17.02;;;;;;;8.85;90.84;103911.53;7394386;19;20022;-57
2021/12/17 03:16:26;;;;;;;38.78;17.33;;;;;;;8.88;91.05;103915.94;7393010;19;20022;-59
2021/12/17 03:19:09;;;;;;;35.42;16.90;;;;;;;8.89;91.08;103920.31;7394991;19;20021;-58
2021/12/17 03:24:22;;;;;;;36.47;16.60;;;;;;;8.93;91.19;103911.66;7390443;19;20014;-58
2021/12/17 03:26:52;;;;;;;39.28;17.88;;;;;;;8.92;91.12;103918.59;7393037;19;20006;-56
2021/12/17 03:29:21;;;;;;;41.78;17.60;;;;;;;8.94;91.22;103911.66;7394662;19;20141;-58
2021/12/17 03:31:50;;;;;;;37.95;17.92;;;;;;;8.95;91.13;103915.16;7394308;19;20007;-57
2021/12/17 03:34:21;;;;;;;39.47;17.92;;;;;;;8.96;91.07;103909.06;7393088;19;20459;-54
2021/12/17 03:36:54;;;;;;;37.45;16.50;;;;;;;8.97;90.96;103909.09;7390874;19;20093;-61
2021/12/17 03:39:26;;;;;;;40.58;17.15;;;;;;;8.97;91.07;103908.22;7391445;19;20031;-55
2021/12/17 03:41:56;;;;;;;41.17;17.52;;;;;;;8.97;91.07;103908.22;7395315;19;20006;-55
2021/12/17 03:44:26;;;;;;;42.15;17.13;;;;;;;8.97;90.94;103903.84;7391449;19;20448;-57
2021/12/17 03:46:55;;;;;;;36.22;16.80;;;;;;;8.97;91.10;103908.22;7389970;19;20405;-57
2021/12/17 03:49:24;;;;;;;43.83;18.27;;;;;;;8.96;91.20;103907.31;7390686;19;20452;-55
2021/12/17 03:52:04;;;;;;;38.42;16.85;;;;;;;8.98;91.18;103910.84;7391005;19;20011;-61
2021/12/17 03:54:37;;;;;;;40.05;16.05;;;;;;;8.99;91.04;103914.34;7390555;19;20102;-57
2021/12/17 03:57:10;;;;;;;40.80;15.73;;;;;;;9.02;90.92;103923.97;7390937;19;20014;-57
2021/12/17 03:59:39;;;;;;;34.00;15.32;;;;;;;9.03;90.94;103923.97;7392999;19;20134;-56
2021/12/17 04:02:08;;;;;;;35.95;14.50;;;;;;;9.03;90.99;103916.13;7391064;19;20391;-54
2021/12/17 04:04:37;;;;;;;35.67;15.63;;;;;;;9.04;90.88;103919.59;7391719;19;20007;-57
2021/12/17 04:07:06;;;;;;;39.10;16.02;;;;;;;9.02;90.78;103924.81;7389861;19;20015;-53
2021/12/17 04:09:37;;;;;;;40.70;16.92;;;;;;;9.02;90.89;103923.97;7392891;19;20029;-53
2021/12/17 04:12:12;;;;;;;34.40;15.93;;;;;;;9.03;90.82;103923.06;7393044;19;20038;-54
2021/12/17 04:14:45;;;;;;;37.88;15.90;;;;;;;9.02;90.88;103926.56;7390111;19;20019;-53
2021/12/17 04:17:21;;;;;;;36.88;15.52;;;;;;;9.04;90.88;103919.59;7390665;19;20023;-53
2021/12/17 04:19:50;;;;;;;41.17;16.45;;;;;;;9.02;90.73;103914.38;7392004;19;20014;-53
2021/12/17 04:22:19;;;;;;;40.78;16.38;;;;;;;9.04;90.95;103919.59;7390242;19;20019;-58
2021/12/17 04:24:51;;;;;;;45.45;17.52;;;;;;;9.04;90.90;103919.59;7391159;19;20554;-57
2021/12/17 04:27:20;;;;;;;45.95;17.67;;;;;;;8.98;90.73;103923.94;7390836;19;20017;-57
2021/12/17 04:29:48;;;;;;;42.15;16.95;;;;;;;8.96;90.73;103914.28;7390354;19;20022;-56
2021/12/17 04:32:17;;;;;;;40.38;16.38;;;;;;;8.96;90.78;103920.41;7392276;19;20030;-57
2021/12/17 04:34:46;;;;;;;38.50;16.40;;;;;;;8.92;90.83;103926.44;7389201;19;20324;-58
2021/12/17 04:37:15;;;;;;;42.85;17.40;;;;;;;8.89;90.95;103933.38;7392323;19;20020;-58
2021/12/17 04:39:44;;;;;;;39.55;16.55;;;;;;;8.84;90.84;103928.09;7391691;19;20014;-57
2021/12/17 04:42:20;;;;;;;40.63;17.20;;;;;;;8.82;91.23;103917.59;7389589;19;20039;-56
2021/12/17 04:44:54;;;;;;;38.80;16.42;;;;;;;8.83;91.41;103927.19;7391673;19;20007;-55
2021/12/17 04:58:10;;;;;;;37.00;15.75;;;;;;;8.83;91.22;103915.88;7388932;19;20025;-52
2021/12/17 05:00:39;;;;;;;39.53;16.50;;;;;;;8.83;91.24;103913.25;7391354;19;20367;-56
2021/12/17 05:03:08;;;;;;;38.42;15.55;;;;;;;8.81;91.31;103902.78;7391586;19;20015;-56
2021/12/17 05:05:37;;;;;;;40.15;15.90;;;;;;;8.80;91.33;103903.63;7390779;19;20018;-54
2021/12/17 05:08:11;;;;;;;36.47;15.32;;;;;;;8.83;91.38;103914.13;7388813;19;20493;-55
2021/12/17 05:11:03;;;;;;;37.28;15.10;;;;;;;8.88;91.61;103915.94;7390854;19;20015;-52
2021/12/17 05:19:10;;;;;;;38.30;16.45;;;;;;;8.91;91.50;103923.81;7386743;19;20035;-54
2021/12/17 05:21:39;;;;;;;37.95;15.70;;;;;;;8.92;91.65;103929.06;7389235;19;20431;-51
2021/12/17 05:24:09;;;;;;;38.15;15.60;;;;;;;8.91;91.54;103931.66;7388756;19;20018;-55
2021/12/17 05:26:37;;;;;;;42.25;17.38;;;;;;;8.89;91.44;103938.63;7389610;19;20082;-54
2021/12/17 05:29:09;;;;;;;42.88;17.45;;;;;;;8.88;91.61;103934.22;7390333;19;20355;-58
2021/12/17 05:31:38;;;;;;;42.72;18.00;;;;;;;8.90;91.63;103936.00;7390116;19;20011;-56
2021/12/17 05:34:06;;;;;;;45.72;18.73;;;;;;;8.92;91.63;103941.25;7388710;19;20324;-59
2021/12/17 05:36:35;;;;;;;42.45;18.17;;;;;;;8.87;91.57;103933.38;7388213;19;20006;-57
2021/12/17 05:39:04;;;;;;;48.00;18.98;;;;;;;8.86;91.49;103938.56;7391355;19;20572;-61
2021/12/17 05:41:33;;;;;;;42.00;17.63;;;;;;;8.86;91.62;103942.06;7389892;19;20021;-58
2021/12/17 05:44:02;;;;;;;43.80;18.23;;;;;;;8.87;91.58;103943.81;7389148;19;20013;-58
2021/12/17 05:46:49;;;;;;;42.00;17.83;;;;;;;8.88;91.65;103939.47;7385621;19;20049;-58
2021/12/17 05:49:18;;;;;;;46.15;19.38;;;;;;;8.89;91.56;103933.38;7388189;19;20022;-51
2021/12/17 05:51:48;;;;;;;42.78;17.48;;;;;;;8.86;91.72;103926.38;7387435;19;20411;-56
2021/12/17 05:54:17;;;;;;;44.05;18.50;;;;;;;8.89;91.58;103922.94;7387756;19;20021;-52
2021/12/17 05:56:46;;;;;;;42.28;17.38;;;;;;;8.89;91.64;103931.63;7390756;19;20018;-52
2021/12/17 05:59:15;;;;;;;40.55;17.38;;;;;;;8.90;91.70;103932.53;7389982;19;20020;-58
2021/12/17 06:01:47;;;;;;;45.63;17.52;;;;;;;8.90;91.68;103940.38;7389896;19;20147;-56
2021/12/17 06:04:16;;;;;;;43.47;18.42;;;;;;;8.91;91.67;103947.34;7388849;19;20358;-57
2021/12/17 06:06:46;;;;;;;39.42;17.27;;;;;;;8.91;91.65;103931.66;7388256;19;20010;-56
2021/12/17 06:09:15;;;;;;;44.70;17.90;;;;;;;8.93;91.69;103937.81;7387198;19;20040;-56
2021/12/17 06:11:43;;;;;;;44.25;18.60;;;;;;;8.90;91.52;103938.63;7387425;19;20387;-59
2021/12/17 06:14:12;;;;;;;43.58;18.15;;;;;;;8.93;91.74;103937.81;7387267;19;20015;-57
2021/12/17 06:16:41;;;;;;;43.13;17.48;;;;;;;8.93;91.76;103936.06;7388105;19;20021;-54
2021/12/17 06:19:14;;;;;;;45.60;18.45;;;;;;;8.96;91.67;103941.31;7389002;19;20515;-55
2021/12/17 06:21:43;;;;;;;46.45;19.27;;;;;;;8.95;91.62;103946.53;7386591;19;20015;-57
2021/12/17 06:24:12;;;;;;;45.10;17.42;;;;;;;8.97;91.50;103956.16;7387942;19;20020;-56
2021/12/17 06:26:41;;;;;;;41.45;18.15;;;;;;;8.96;91.53;103959.63;7387805;19;20017;-57
2021/12/17 06:29:10;;;;;;;44.75;18.48;;;;;;;8.96;91.77;103959.63;7386726;19;20483;-59
2021/12/17 06:31:39;;;;;;;49.95;18.92;;;;;;;8.97;91.68;103956.16;7386922;19;20460;-57
2021/12/17 06:34:07;;;;;;;45.42;18.75;;;;;;;8.98;91.42;103957.94;7386186;19;20014;-53
2021/12/17 06:36:39;;;;;;;43.67;19.35;;;;;;;8.95;91.49;103960.47;7385722;19;20014;-54
2021/12/17 06:39:08;;;;;;;45.53;18.73;;;;;;;8.97;91.53;103960.53;7386998;19;20493;-53
2021/12/17 06:41:38;;;;;;;46.15;18.17;;;;;;;8.95;91.60;103959.59;7389357;19;20091;-52
2021/12/17 06:44:10;;;;;;;45.42;18.25;;;;;;;8.91;91.56;103953.47;7386302;19;20018;-54
2021/12/17 06:46:52;;;;;;;44.75;17.40;;;;;;;8.90;91.44;103954.31;7387401;19;20011;-57
2021/12/17 06:49:27;;;;;;;43.17;17.48;;;;;;;8.89;91.69;103954.31;7386404;19;20021;-56
2021/12/17 06:54:56;;;;;;;42.35;17.08;;;;;;;8.85;91.73;103957.72;7390402;19;20021;-52
2021/12/17 07:00:20;;;;;;;42.63;17.45;;;;;;;8.82;91.86;103950.72;7392798;19;20025;-57
2021/12/17 07:11:00;;;;;;;41.60;16.75;;;;;;;8.79;92.23;103935.84;7391295;19;20082;-56
2021/12/17 07:22:02;;;;;;;40.63;15.73;;;;;;;8.82;92.40;103941.13;7392308;19;20025;-56
2021/12/17 07:32:52;;;;;;;42.25;17.17;;;;;;;8.74;92.66;103963.69;7394939;19;20014;-57
2021/12/17 07:40:46;;;;;;;39.70;15.82;;;;;;;8.70;92.79;103956.66;7395279;19;20018;-56
2021/12/17 07:43:24;;;;;;;35.88;15.60;;;;;;;8.72;92.95;103954.06;7394800;19;20090;-55
2021/12/17 07:45:55;;;;;;;34.38;14.30;;;;;;;8.73;93.05;103961.06;7393664;19;20015;-57
2021/12/17 07:48:25;;;;;;;31.60;14.65;;;;;;;8.74;93.15;103963.69;7392212;19;20014;-58
2021/12/17 07:50:54;;;;;;;31.90;13.20;;;;;;;8.75;92.83;103960.19;7394517;19;20534;-57
2021/12/17 07:53:23;;;;;;;28.85;12.45;;;;;;;8.77;92.90;103962.88;7394159;19;20019;-57
2021/12/17 07:55:55;;;;;;;29.40;12.50;;;;;;;8.79;92.95;103956.78;7391271;19;20010;-57
2021/12/17 07:58:23;;;;;;;29.35;13.40;;;;;;;8.79;92.63;103961.13;7392227;19;20034;-56
2021/12/17 08:00:52;;;;;;;35.53;14.45;;;;;;;8.78;92.60;103946.31;7394144;19;20021;-56
2021/12/17 08:03:21;;;;;;;29.08;13.48;;;;;;;8.76;92.42;103958.50;7391287;19;20018;-57
2021/12/17 08:05:51;;;;;;;27.05;13.00;;;;;;;8.80;92.35;103968.13;7391218;19;20003;-57
2021/12/17 08:08:21;;;;;;;27.80;12.65;;;;;;;8.82;92.36;103964.66;7392116;19;20134;-57
2021/12/17 08:10:50;;;;;;;29.65;12.77;;;;;;;8.85;92.22;103968.19;7392354;19;20344;-54
2021/12/17 08:13:25;;;;;;;27.00;11.85;;;;;;;8.85;92.32;103958.59;7393279;19;20365;-64
2021/12/17 08:16:09;;;;;;;26.40;12.32;;;;;;;8.84;92.19;103959.47;7390783;19;20472;-58
2021/12/17 08:19:07;;;;;;;29.10;12.27;;;;;;;8.88;92.27;103965.63;7391857;19;20027;-58
2021/12/17 08:27:23;;;;;;;25.70;11.52;;;;;;;8.88;91.72;103991.75;7390617;19;20021;-56
2021/12/17 08:30:18;;;;;;;22.15;9.98;;;;;;;8.83;91.23;103984.72;7391731;19;20078;-58
2021/12/17 08:32:47;;;;;;;20.67;9.75;;;;;;;8.82;91.07;103987.31;7392124;19;20488;-59
2021/12/17 08:35:17;;;;;;;20.55;10.48;;;;;;;8.77;91.08;103989.00;7390374;19;20025;-60
2021/12/17 08:37:46;;;;;;;21.50;9.38;;;;;;;8.75;90.96;103983.72;7390400;19;20091;-58
2021/12/17 08:40:14;;;;;;;20.65;9.38;;;;;;;8.78;90.89;103983.81;7391533;19;20359;-57
2021/12/17 08:42:43;;;;;;;21.20;9.85;;;;;;;8.78;90.84;103986.41;7392284;19;20011;-57
2021/12/17 08:45:15;;;;;;;19.20;9.13;;;;;;;8.79;90.88;103988.16;7390652;19;20015;-56
2021/12/17 08:47:44;;;;;;;19.50;9.02;;;;;;;8.79;90.75;103984.66;7390202;19;20015;-57
2021/12/17 08:50:13;;;;;;;17.80;8.60;;;;;;;8.81;90.74;103988.19;7392250;19;20029;-58
2021/12/17 08:52:42;;;;;;;15.45;7.88;;;;;;;8.82;90.70;103982.97;7390361;19;20020;-56
2021/12/17 08:55:13;;;;;;;17.23;9.20;;;;;;;8.84;90.71;103988.25;7390890;19;20403;-58
2021/12/17 08:57:42;;;;;;;17.73;8.75;;;;;;;8.83;90.40;103987.34;7389855;19;20013;-57
2021/12/17 09:00:18;;;;;;;16.90;8.27;;;;;;;8.85;90.36;103995.22;7392138;19;20017;-56
2021/12/17 09:02:47;;;;;;;18.05;8.80;;;;;;;8.84;90.22;103993.47;7390231;19;20030;-55
2021/12/17 09:05:17;;;;;;;19.52;9.65;;;;;;;8.87;90.02;103992.63;7393506;19;20014;-56
2021/12/17 09:07:46;;;;;;;21.52;9.90;;;;;;;8.82;89.81;103993.41;7392620;19;20025;-55
2021/12/17 09:10:20;;;;;;;18.35;9.07;;;;;;;8.85;89.83;103994.34;7395287;19;20419;-57
2021/12/17 09:12:49;;;;;;;15.95;8.75;;;;;;;8.86;89.56;103996.09;7390653;19;20015;-58
2021/12/17 09:15:21;;;;;;;15.20;7.55;;;;;;;8.83;89.34;103992.56;7390477;19;20504;-58
2021/12/17 09:17:49;;;;;;;16.40;7.82;;;;;;;8.84;89.38;103998.69;7390881;19;20466;-56
2021/12/17 09:20:18;;;;;;;13.32;7.13;;;;;;;8.81;89.39;104003.88;7391147;19;20342;-56
2021/12/17 09:22:48;;;;;;;13.88;7.47;;;;;;;8.79;89.22;104008.22;7389419;19;20014;-57
2021/12/17 09:25:17;;;;;;;16.33;8.75;;;;;;;8.78;88.97;104006.44;7389537;19;20015;-56
2021/12/17 09:27:46;;;;;;;14.77;8.13;;;;;;;8.76;88.87;104011.66;7388129;19;20035;-57
2021/12/17 09:30:18;;;;;;;15.82;7.85;;;;;;;8.73;88.79;104011.59;7391360;19;20015;-55
2021/12/17 09:32:49;;;;;;;14.15;7.53;;;;;;;8.75;88.66;104017.72;7389869;19;20025;-56
2021/12/17 09:35:21;;;;;;;12.10;6.93;;;;;;;8.76;88.37;104023.84;7390098;19;20022;-56
2021/12/17 09:37:49;;;;;;;14.05;7.65;;;;;;;8.80;88.30;104029.16;7389866;19;20097;-57
2021/12/17 09:40:18;;;;;;;11.60;6.90;;;;;;;8.82;88.25;104034.41;7391248;19;20018;-55
2021/12/17 09:42:47;;;;;;;11.88;6.30;;;;;;;8.81;87.97;104033.53;7389690;19;20014;-57
2021/12/17 09:45:18;;;;;;;9.40;5.85;;;;;;;8.77;87.60;104039.56;7390004;19;20056;-56
2021/12/17 09:47:50;;;;;;;8.27;5.22;;;;;;;8.78;87.40;104049.19;7388756;19;20017;-58
2021/12/17 09:50:22;;;;;;;11.40;6.13;;;;;;;8.75;87.45;104038.63;7391179;19;20010;-57
2021/12/17 09:52:53;;;;;;;10.32;6.32;;;;;;;8.77;87.71;104049.16;7388995;19;20250;-54
2021/12/17 09:55:22;;;;;;;9.27;6.07;;;;;;;8.76;87.53;104044.78;7388864;19;20530;-58
2021/12/17 09:57:51;;;;;;;9.45;6.20;;;;;;;8.77;87.67;104043.94;7387287;19;20029;-54
2021/12/17 10:00:23;;;;;;;10.52;6.55;;;;;;;8.76;87.70;104045.63;7390945;19;20074;-58
2021/12/17 10:02:55;;;;;;;8.95;6.50;;;;;;;8.78;87.99;104054.41;7389670;19;20014;-56
2021/12/17 10:05:26;;;;;;;10.02;6.70;;;;;;;8.79;87.90;104050.91;7387711;19;20168;-55
2021/12/17 10:07:57;;;;;;;10.10;6.22;;;;;;;8.78;87.66;104054.41;7388804;19;20121;-55
2021/12/17 10:10:35;;;;;;;9.63;6.32;;;;;;;8.82;87.57;104063.16;7388313;19;20492;-55
2021/12/17 10:13:12;;;;;;;8.95;6.20;;;;;;;8.85;87.74;104057.09;7387864;19;20025;-57
2021/12/17 10:15:44;;;;;;;7.40;5.40;;;;;;;8.83;87.47;104062.31;7387789;19;20019;-54
2021/12/17 10:18:16;;;;;;;8.30;5.55;;;;;;;8.85;87.22;104068.44;7389129;19;20079;-54
2021/12/17 10:20:56;;;;;;;7.72;4.82;;;;;;;8.89;87.33;104058.91;7386867;19;20010;-56
2021/12/17 10:23:27;;;;;;;8.07;5.00;;;;;;;8.92;87.13;104057.19;7388556;19;20025;-56
2021/12/17 10:25:56;;;;;;;10.40;8.18;;;;;;;8.95;87.20;104064.22;7390327;19;20026;-53
2021/12/17 10:28:25;;;;;;;9.60;6.80;;;;;;;8.98;87.16;104054.69;7390251;19;20164;-52
2021/12/17 10:30:55;;;;;;;8.63;6.18;;;;;;;9.00;87.35;104050.34;7386649;19;20066;-53
2021/12/17 10:33:30;;;;;;;7.63;5.15;;;;;;;8.98;86.96;104065.16;7391358;19;20381;-53
2021/12/17 10:36:03;;;;;;;8.07;5.13;;;;;;;8.97;86.90;104055.56;7393187;19;20039;-55
2021/12/17 10:38:32;;;;;;;9.20;4.75;;;;;;;8.95;86.75;104054.63;7393095;19;20028;-54
2021/12/17 10:41:07;;;;;;;7.45;4.80;;;;;;;8.95;86.84;104044.16;7396556;19;20011;-54
2021/12/17 10:43:41;;;;;;;8.65;5.43;;;;;;;8.99;87.07;104050.34;7392742;19;20015;-56
2021/12/17 10:46:21;;;;;;;9.38;5.30;;;;;;;8.98;86.89;104052.09;7392678;19;20021;-56
2021/12/17 10:48:57;;;;;;;7.90;4.80;;;;;;;8.98;86.89;104048.56;7392612;19;20030;-56
2021/12/17 10:51:45;;;;;;;6.57;4.28;;;;;;;8.99;86.91;104047.72;7393758;19;20082;-56
2021/12/17 10:54:15;;;;;;;8.88;5.10;;;;;;;8.96;86.83;104048.56;7393822;19;20038;-53
2021/12/17 10:56:46;;;;;;;8.10;4.45;;;;;;;8.95;86.90;104057.25;7394360;19;20026;-54
2021/12/17 10:59:18;;;;;;;9.07;4.95;;;;;;;8.96;87.21;104060.75;7392992;19;20028;-53
2021/12/17 11:01:49;;;;;;;8.52;4.60;;;;;;;8.96;87.37;104051.16;7397005;19;20021;-56
2021/12/17 11:04:23;;;;;;;8.85;4.43;;;;;;;8.93;87.45;104051.13;7392550;19;20016;-56
2021/12/17 11:06:54;;;;;;;8.02;4.43;;;;;;;8.95;87.50;104056.38;7392219;19;20458;-55
2021/12/17 11:09:43;;;;;;;7.47;4.80;;;;;;;8.94;87.32;104059.84;7395640;19;20018;-56
2021/12/17 11:12:27;;;;;;;7.97;5.00;;;;;;;8.96;87.52;104055.53;7392661;19;20017;-56
2021/12/17 11:14:59;;;;;;;8.70;5.50;;;;;;;8.95;87.59;104053.75;7392582;19;20119;-53
2021/12/17 11:17:28;;;;;;;8.50;5.20;;;;;;;8.97;87.87;104063.41;7391077;19;20014;-54
2021/12/17 11:20:04;;;;;;;10.45;5.63;;;;;;;8.97;87.97;104055.56;7392728;19;20331;-57
2021/12/17 11:22:33;;;;;;;9.45;5.35;;;;;;;9.01;88.05;104064.31;7394659;19;20096;-55
2021/12/17 11:25:03;;;;;;;8.75;5.60;;;;;;;9.04;88.24;104048.69;7392732;19;20078;-55
2021/12/17 11:27:33;;;;;;;8.70;5.85;;;;;;;9.07;88.23;104039.97;7391881;19;20494;-55
2021/12/17 11:30:03;;;;;;;7.82;4.85;;;;;;;9.07;88.17;104043.50;7392057;19;20021;-58
2021/12/17 11:32:32;;;;;;;10.02;5.40;;;;;;;9.01;87.55;104040.75;7392128;19;20342;-56
2021/12/17 11:35:04;;;;;;;8.18;5.00;;;;;;;9.03;87.48;104038.16;7392138;19;20030;-57
2021/12/17 11:37:35;;;;;;;7.03;5.15;;;;;;;9.01;87.43;104043.38;7391216;19;20068;-57
2021/12/17 11:40:07;;;;;;;8.27;5.15;;;;;;;9.01;87.42;104046.00;7392511;19;20015;-59
2021/12/17 11:43:00;;;;;;;7.05;4.38;;;;;;;8.99;87.08;104043.34;7392576;19;20017;-53
2021/12/17 11:45:30;;;;;;;5.57;3.80;;;;;;;9.00;86.78;104047.75;7388384;19;20007;-56
2021/12/17 11:48:16;;;;;;;5.47;3.70;;;;;;;8.99;86.41;104039.88;7391433;19;20282;-56
2021/12/17 11:50:49;;;;;;;4.68;3.22;;;;;;;8.94;85.69;104037.19;7395103;19;20397;-57
2021/12/17 11:53:23;;;;;;;5.57;3.67;;;;;;;8.91;85.42;104045.00;7392610;19;20025;-55
2021/12/17 11:55:59;;;;;;;4.50;2.90;;;;;;;8.94;85.30;104044.16;7393839;19;20740;-58
2021/12/17 11:58:48;;;;;;;4.47;2.40;;;;;;;8.92;85.34;104049.34;7391739;19;20658;-58
2021/12/17 12:01:57;;;;;;;3.17;2.25;;;;;;;8.96;85.24;104045.06;7394852;19;20018;-55
2021/12/17 12:04:45;;;;;;;5.60;2.55;;;;;;;8.97;84.78;104047.69;7390383;19;20022;-55
2021/12/17 12:07:18;;;;;;;4.00;2.42;;;;;;;8.93;84.05;104039.78;7391570;19;20025;-56
2021/12/17 12:09:59;;;;;;;4.90;2.38;;;;;;;8.96;83.63;104039.84;7392583;19;20476;-56
2021/12/17 12:12:31;;;;;;;4.28;2.58;;;;;;;8.88;82.72;104038.84;7391602;19;20011;-54
2021/12/17 12:15:36;;;;;;;3.97;3.00;;;;;;;8.89;82.22;104033.63;7391247;19;20014;-53
2021/12/17 12:18:19;;;;;;;3.05;2.30;;;;;;;8.90;81.66;104029.31;7392386;19;20014;-57
2021/12/17 12:20:59;;;;;;;7.00;2.97;;;;;;;8.92;81.31;104030.19;7391248;19;20029;-55
2021/12/17 12:23:53;;;;;;;3.53;2.70;;;;;;;8.99;81.72;104024.19;7391034;19;20422;-55
2021/12/17 12:26:36;;;;;;;3.30;2.50;;;;;;;9.07;82.46;104017.31;7391079;19;20007;-54
2021/12/17 12:29:10;;;;;;;4.18;2.80;;;;;;;9.16;82.92;104021.81;7393028;19;20487;-56
2021/12/17 12:31:47;;;;;;;3.80;2.85;;;;;;;9.22;83.06;104014.03;7390657;19;20021;-57
2021/12/17 12:34:17;;;;;;;2.97;2.55;;;;;;;9.25;82.92;104010.56;7390997;19;20317;-55
2021/12/17 12:36:48;;;;;;;4.30;2.90;;;;;;;9.28;82.96;104016.72;7390269;19;20021;-55
2021/12/17 12:39:23;;;;;;;3.35;2.40;;;;;;;9.30;82.31;104019.38;7394058;19;20017;-53
2021/12/17 12:42:00;;;;;;;4.35;2.60;;;;;;;9.28;81.69;104019.31;7392366;19;20022;-54
2021/12/17 12:44:59;;;;;;;4.13;2.45;;;;;;;9.32;81.42;104020.25;7391132;19;20011;-56
2021/12/17 12:47:50;;;;;;;3.10;2.30;;;;;;;9.36;81.44;104022.06;7391625;19;20082;-57
2021/12/17 12:50:23;;;;;;;3.35;2.70;;;;;;;9.37;81.04;104025.53;7392800;19;20483;-56
2021/12/17 12:52:54;;;;;;;4.65;2.80;;;;;;;9.38;80.49;104020.31;7386436;19;20017;-55
2021/12/17 12:55:29;;;;;;;4.28;3.17;;;;;;;9.42;80.97;104022.13;7391092;19;20029;-57
2021/12/17 12:58:09;;;;;;;3.75;3.10;;;;;;;9.44;80.28;104011.66;7389551;19;20016;-54
2021/12/17 13:00:43;;;;;;;3.67;2.80;;;;;;;9.46;80.20;104017.81;7389749;19;20018;-57
2021/12/17 13:03:14;;;;;;;4.55;2.65;;;;;;;9.47;79.88;104017.84;7390154;19;20499;-54
2021/12/17 13:05:44;;;;;;;4.28;2.40;;;;;;;9.48;79.84;104008.22;7390734;19;20019;-57
2021/12/17 13:08:14;;;;;;;3.58;2.47;;;;;;;9.50;79.72;104004.78;7390738;19;20007;-55
2021/12/17 13:10:50;;;;;;;3.47;2.47;;;;;;;9.55;80.18;104006.56;7391617;19;20014;-52
2021/12/17 13:13:28;;;;;;;4.07;2.75;;;;;;;9.57;80.01;104015.31;7390545;19;20010;-53
2021/12/17 13:16:12;;;;;;;4.53;3.10;;;;;;;9.60;79.87;104011.00;7391253;19;20471;-52
2021/12/17 13:21:46;;;;;;;4.80;3.13;;;;;;;9.63;80.25;104007.56;7391460;19;20130;-56
2021/12/17 13:24:19;;;;;;;3.90;3.10;;;;;;;9.64;80.11;104009.28;7389423;19;20074;-55
2021/12/17 13:26:53;;;;;;;4.63;3.40;;;;;;;9.64;80.26;104009.28;7388307;19;20390;-55
2021/12/17 13:29:24;;;;;;;4.35;3.42;;;;;;;9.64;80.31;104018.03;7389075;19;20020;-57
2021/12/17 13:31:56;;;;;;;4.90;3.33;;;;;;;9.67;80.88;104010.22;7390810;19;20021;-58
2021/12/17 13:34:29;;;;;;;3.78;3.35;;;;;;;9.70;80.98;104001.53;7389576;19;20452;-56
2021/12/17 13:37:03;;;;;;;;;;;;;;;9.68;80.81;104005.84;7389019;19;20491;-55
2021/12/17 13:39:34;;;;;;;4.97;3.13;;;;;;;9.64;80.23;104009.28;7389568;19;20024;-56
2021/12/17 13:42:07;;;;;;;4.32;3.30;;;;;;;9.63;80.13;103995.31;7389519;19;20014;-56
2021/12/17 13:44:43;;;;;;;5.90;3.70;;;;;;;9.64;80.38;104007.56;7387152;19;20116;-56
2021/12/17 13:47:19;;;;;;;6.45;3.50;;;;;;;9.66;80.73;103992.75;7385307;19;20070;-56
2021/12/17 13:49:50;;;;;;;4.18;3.35;;;;;;;9.68;80.72;103995.38;7388536;19;20010;-57
2021/12/17 13:52:22;;;;;;;3.63;3.20;;;;;;;9.72;81.36;103988.44;7389042;19;20010;-56
2021/12/17 13:54:53;;;;;;;3.87;3.43;;;;;;;9.75;81.56;103983.22;7386305;19;20045;-53
2021/12/17 13:57:26;;;;;;;4.32;3.50;;;;;;;9.77;81.61;103985.00;7385026;19;20281;-56
2021/12/17 14:00:03;;;;;;;4.63;3.70;;;;;;;9.78;81.42;103985.88;7385778;19;20014;-52
2021/12/17 14:02:36;;;;;;;5.43;4.10;;;;;;;9.72;80.82;103978.84;7385898;19;20026;-51
2021/12/17 14:05:09;;;;;;;5.13;4.28;;;;;;;9.74;81.27;103977.09;7385327;19;20007;-55